Gray, Texas
Current Conditions -  °F | °C
As of 3:15 PM on Monday 22 Dec 2014 (Local Time) from KASL Reporting Station
Scattered Clouds Scattered Clouds  
Wind Chill: 73°   Ceiling: Unl
Heat Index: 73°   Visibility: 10mi
Dew Point: 55°   Wind: 9mph
Humidity: 52%   Direction: 230°SW
Pressure: 29.57"   Gusts: 17mph
Location:  32.7902°N, 94.3019°W
Report Text: KASL 222115Z AUTO 23008G15KT 10SM SCT042 23/13 A2957 RMK AO1 T02300127
Loading
Personal Weather Stations






























Interactive Weather Map New forecast layout! Learn more

10-Day Weather Forecast

Advertisements
Track Severe Weather on mobile